createdAt,value
2019-04-27T00:00:20.217Z,100710.95
2019-04-27T00:03:02.205Z,100704.00
2019-04-27T00:05:34.851Z,100711.48
2019-04-27T00:08:09.887Z,100707.65
2019-04-27T00:10:59.826Z,100706.88
2019-04-27T00:13:28.689Z,100705.16
2019-04-27T00:16:13.355Z,100705.70
2019-04-27T00:18:45.543Z,100700.12
2019-04-27T00:21:28.701Z,100694.95
2019-04-27T00:23:58.148Z,100695.43
2019-04-27T00:26:28.619Z,100695.48
2019-04-27T00:28:58.129Z,100689.84
2019-04-27T00:31:27.510Z,100692.09
2019-04-27T00:33:56.974Z,100690.38
2019-04-27T00:36:35.279Z,100688.23
2019-04-27T00:39:08.111Z,100681.28
2019-04-27T00:41:39.180Z,100676.53
2019-04-27T00:44:08.681Z,100680.50
2019-04-27T00:46:38.081Z,100675.75
2019-04-27T00:49:07.482Z,100672.32
2019-04-27T00:51:36.912Z,100671.95
2019-04-27T00:54:06.308Z,100672.85
2019-04-27T00:56:55.481Z,100668.55
2019-04-27T00:59:33.065Z,100675.98
2019-04-27T01:02:23.294Z,100675.99
2019-04-27T01:04:52.985Z,100676.46
2019-04-27T01:07:22.802Z,100669.09
2019-04-27T01:09:53.598Z,100667.00
2019-04-27T01:12:23.715Z,100661.83
2019-04-27T01:14:53.547Z,100658.34
2019-04-27T01:17:22.970Z,100657.97
2019-04-27T01:19:52.324Z,100649.30
2019-04-27T01:22:21.729Z,100652.38
2019-04-27T01:24:51.119Z,100648.94
2019-04-27T01:27:22.216Z,100642.03
2019-04-27T01:29:52.848Z,100638.13
2019-04-27T01:32:22.250Z,100641.67
2019-04-27T01:34:51.629Z,100641.25
2019-04-27T01:37:21.251Z,100637.77
2019-04-27T01:39:50.632Z,100635.61
2019-04-27T01:42:20.002Z,100631.66
2019-04-27T01:44:51.115Z,100632.53
2019-04-27T01:47:21.495Z,100633.37
2019-04-27T01:49:50.921Z,100636.83
2019-04-27T01:52:20.267Z,100636.39
2019-04-27T01:54:49.688Z,100633.78
2019-04-27T01:57:20.137Z,100635.05
2019-04-27T01:59:49.467Z,100627.67
2019-04-27T02:02:36.573Z,100626.78
2019-04-27T02:05:24.590Z,100631.12
2019-04-27T02:07:53.968Z,100622.86
2019-04-27T02:10:23.332Z,100613.72
2019-04-27T02:12:52.708Z,100616.30
2019-04-27T02:15:22.106Z,100612.38
2019-04-27T02:17:51.443Z,100612.80
2019-04-27T02:20:20.884Z,100610.63
2019-04-27T02:22:50.768Z,100607.14
2019-04-27T02:25:21.105Z,100600.61
2019-04-27T02:27:52.291Z,100602.39
2019-04-27T02:30:30.643Z,100598.94
2019-04-27T02:33:13.223Z,100597.65
2019-04-27T02:35:42.584Z,100590.28
2019-04-27T02:38:12.951Z,100593.36
2019-04-27T02:40:49.588Z,100590.80
2019-04-27T02:43:23.096Z,100592.95
2019-04-27T02:45:53.431Z,100582.52
2019-04-27T02:48:22.837Z,100578.61
2019-04-27T02:50:53.870Z,100578.66
2019-04-27T02:53:29.568Z,100572.17
2019-04-27T02:55:59.559Z,100570.45
2019-04-27T02:58:31.557Z,100568.31
2019-04-27T03:01:00.114Z,100564.88
2019-04-27T03:03:30.111Z,100563.58
2019-04-27T03:05:59.874Z,100561.00
2019-04-27T03:08:29.497Z,100556.67
2019-04-27T03:11:00.973Z,100562.78
2019-04-27T03:13:31.504Z,100556.73
2019-04-27T03:16:12.990Z,100549.78
2019-04-27T03:18:41.218Z,100540.66
2019-04-27T03:21:20.084Z,100547.61
2019-04-27T03:23:50.142Z,100541.12
2019-04-27T03:26:24.030Z,100537.67
2019-04-27T03:28:54.054Z,100534.66
2019-04-27T03:31:23.462Z,100529.91
2019-04-27T03:33:58.893Z,100531.22
2019-04-27T03:36:24.271Z,100532.98
2019-04-27T03:38:53.768Z,100525.16
2019-04-27T03:41:23.101Z,100522.54
2019-04-27T03:43:52.499Z,100517.73
2019-04-27T03:46:21.870Z,100518.58
2019-04-27T03:48:51.267Z,100511.17
2019-04-27T03:51:25.230Z,100508.97
2019-04-27T03:53:57.300Z,100501.61
2019-04-27T03:56:39.586Z,100502.49
2019-04-27T03:59:25.836Z,100507.71
2019-04-27T04:01:55.294Z,100500.31
2019-04-27T04:04:24.797Z,100499.84
2019-04-27T04:06:54.288Z,100495.91
2019-04-27T04:09:25.257Z,100494.61
2019-04-27T04:11:56.268Z,100497.17
2019-04-27T04:14:25.815Z,100493.66
2019-04-27T04:17:02.685Z,100493.62
2019-04-27T04:19:47.461Z,100484.43
2019-04-27T04:22:02.525Z,100480.91
2019-04-27T04:24:32.040Z,100483.89
2019-04-27T04:27:01.448Z,100476.83
2019-04-27T04:29:30.941Z,100478.53
2019-04-27T04:32:00.667Z,100486.72
2019-04-27T04:34:30.138Z,100486.21
2019-04-27T04:37:00.513Z,100480.89
2019-04-27T04:39:31.040Z,100481.23
2019-04-27T04:42:10.136Z,100488.59
2019-04-27T04:44:46.512Z,100485.48
2019-04-27T04:47:19.466Z,100482.45
2019-04-27T04:49:59.700Z,100481.92
2019-04-27T04:52:19.853Z,100482.33
2019-04-27T04:54:49.637Z,100489.22
2019-04-27T04:57:21.661Z,100494.85
2019-04-27T04:59:51.426Z,100485.30
2019-04-27T05:02:20.962Z,100490.98
2019-04-27T05:04:50.333Z,100490.09
2019-04-27T05:07:19.727Z,100493.48
2019-04-27T05:09:49.116Z,100492.58
2019-04-27T05:12:19.010Z,100488.60
2019-04-27T05:14:49.006Z,100484.25
2019-04-27T05:17:19.637Z,100487.71
2019-04-27T05:19:49.756Z,100487.30
2019-04-27T05:22:19.604Z,100483.84
2019-04-27T05:24:50.649Z,100487.35
2019-04-27T05:27:20.040Z,100480.89
2019-04-27T05:29:50.551Z,100486.66
2019-04-27T05:32:20.721Z,100478.89
2019-04-27T05:34:50.130Z,100475.91
2019-04-27T05:37:27.557Z,100476.81
2019-04-27T05:39:50.570Z,100471.65
2019-04-27T05:42:20.111Z,100473.40
2019-04-27T05:45:20.001Z,100473.40
2019-04-27T05:47:53.570Z,100467.73
2019-04-27T05:50:35.324Z,100463.77
2019-04-27T05:52:53.977Z,100464.17
2019-04-27T05:55:23.318Z,100464.58
2019-04-27T05:57:52.724Z,100459.77
2019-04-27T06:00:22.124Z,100467.13
2019-04-27T06:02:51.525Z,100466.23
2019-04-27T06:05:22.793Z,100466.17
2019-04-27T06:07:51.988Z,100462.25
2019-04-27T06:10:21.374Z,100460.03
2019-04-27T06:12:50.743Z,100460.41
2019-04-27T06:15:20.141Z,100455.59
2019-04-27T06:17:49.514Z,100460.33
2019-04-27T06:20:18.995Z,100455.03
2019-04-27T06:22:48.911Z,100459.36
2019-04-27T06:25:21.453Z,100456.26
2019-04-27T06:27:49.652Z,100456.20
2019-04-27T06:30:19.363Z,100453.50
2019-04-27T06:32:49.418Z,100457.36
2019-04-27T06:35:19.808Z,100451.23
2019-04-27T06:37:49.370Z,100456.36
2019-04-27T06:40:18.821Z,100461.13
2019-04-27T06:42:49.227Z,100458.98
2019-04-27T06:45:19.746Z,100450.27
2019-04-27T06:51:35.327Z,100442.41
2019-04-27T06:54:04.939Z,100444.13
2019-04-27T07:00:20.828Z,100440.95
2019-04-27T07:06:54.057Z,100441.27
2019-04-27T07:09:19.749Z,100443.80
2019-04-27T07:11:49.481Z,100448.46
2019-04-27T07:14:19.689Z,100445.70
2019-04-27T07:16:50.734Z,100436.03
2019-04-27T07:19:20.331Z,100435.55
2019-04-27T07:21:49.910Z,100445.10
2019-04-27T07:24:19.732Z,100443.31
2019-04-27T07:26:49.075Z,100442.81
2019-04-27T07:29:19.713Z,100438.48
2019-04-27T07:31:49.623Z,100435.06
2019-04-27T07:34:19.160Z,100438.58
2019-04-27T07:36:49.107Z,100439.47
2019-04-27T07:39:19.280Z,100445.62
2019-04-27T07:41:48.953Z,100445.20
2019-04-27T07:44:29.340Z,100448.78
2019-04-27T07:47:16.364Z,100445.02
2019-04-27T07:49:46.536Z,100445.47
2019-04-27T07:52:15.909Z,100441.27
2019-04-27T07:54:45.351Z,100437.41
2019-04-27T07:57:14.707Z,100436.62
2019-04-27T07:59:44.039Z,100432.77
2019-04-27T08:02:13.382Z,100434.02
2019-04-27T08:04:42.762Z,100429.19
2019-04-27T08:07:12.137Z,100428.70
2019-04-27T08:09:41.510Z,100421.66
2019-04-27T08:12:11.049Z,100418.48
2019-04-27T08:14:41.387Z,100421.03
2019-04-27T08:17:10.768Z,100420.52
2019-04-27T08:19:40.088Z,100417.73
2019-04-27T08:22:09.787Z,100411.09
2019-04-27T08:24:39.670Z,100411.04
2019-04-27T08:27:10.725Z,100408.62
2019-04-27T08:29:48.776Z,100399.71
2019-04-27T08:32:19.794Z,100400.95
2019-04-27T08:34:49.634Z,100397.11
2019-04-27T08:37:20.076Z,100397.84
2019-04-27T08:39:51.138Z,100397.33
2019-04-27T08:42:20.525Z,100392.16
2019-04-27T08:44:49.887Z,100396.08
2019-04-27T08:47:20.210Z,100397.82
2019-04-27T08:49:49.542Z,100397.84
2019-04-27T08:52:19.342Z,100394.48
2019-04-27T08:54:49.345Z,100391.94
2019-04-27T08:57:19.871Z,100422.48
2019-04-27T08:59:51.137Z,100445.62
2019-04-27T09:02:20.263Z,100442.97
2019-04-27T09:04:49.678Z,100433.84
2019-04-27T09:07:39.762Z,100440.64
2019-04-27T09:10:18.879Z,100442.09
2019-04-27T09:12:53.694Z,100436.19
2019-04-27T09:15:30.943Z,100437.84
2019-04-27T09:18:01.353Z,100434.83
2019-04-27T09:20:38.969Z,100429.60
2019-04-27T09:23:09.853Z,100426.33
2019-04-27T09:25:39.708Z,100428.83
2019-04-27T09:28:09.138Z,100434.10
2019-04-27T09:30:39.795Z,100429.84
2019-04-27T09:33:09.193Z,100439.42
2019-04-27T09:35:38.549Z,100428.20
2019-04-27T09:38:07.930Z,100433.59
2019-04-27T09:40:37.301Z,100436.63
2019-04-27T09:43:07.498Z,100446.27
2019-04-27T09:45:38.466Z,100444.70
2019-04-27T09:48:08.016Z,100448.37
2019-04-27T09:50:37.402Z,100445.44
2019-04-27T09:53:06.850Z,100441.59
2019-04-27T09:55:36.873Z,100444.21
2019-04-27T09:58:07.407Z,100447.32
2019-04-27T10:00:37.445Z,100449.50
2019-04-27T10:03:06.916Z,100454.25
2019-04-27T10:05:37.255Z,100461.75
2019-04-27T10:08:06.667Z,100458.67
2019-04-27T10:10:37.176Z,100460.85
2019-04-27T10:13:07.615Z,100461.81
2019-04-27T10:15:36.979Z,100466.97
2019-04-27T10:18:06.303Z,100466.56
2019-04-27T10:20:39.077Z,100467.39
2019-04-27T10:23:06.771Z,100469.51
2019-04-27T10:25:37.475Z,100480.38
2019-04-27T10:28:06.996Z,100473.03
2019-04-27T10:30:36.332Z,100473.03
2019-04-27T10:33:08.066Z,100462.08
2019-04-27T10:35:36.828Z,100464.22
2019-04-27T10:38:06.477Z,100459.39
2019-04-27T10:40:35.859Z,100460.64
2019-04-27T10:43:06.288Z,100464.53
2019-04-27T10:45:37.698Z,100465.70
2019-04-27T10:48:06.800Z,100469.41
2019-04-27T10:50:36.641Z,100466.06
2019-04-27T10:53:07.008Z,100455.67
2019-04-27T10:55:36.456Z,100463.69
2019-04-27T10:58:05.881Z,100462.95
2019-04-27T11:00:45.614Z,100466.94
2019-04-27T11:03:16.738Z,100466.94
2019-04-27T11:05:47.659Z,100486.50
2019-04-27T11:08:17.041Z,100502.16
2019-04-27T11:10:46.416Z,100517.39
2019-04-27T11:13:16.502Z,100517.50
2019-04-27T11:15:46.226Z,100515.63
2019-04-27T11:18:16.717Z,100516.95
2019-04-27T11:20:46.845Z,100493.59
2019-04-27T11:23:16.558Z,100490.67
2019-04-27T11:25:46.831Z,100484.23
2019-04-27T11:28:16.322Z,100503.10
2019-04-27T11:30:45.645Z,100504.12
2019-04-27T11:33:16.208Z,100502.03
2019-04-27T11:35:50.106Z,100489.86
2019-04-27T11:38:19.458Z,100478.96
2019-04-27T11:40:48.791Z,100477.89
2019-04-27T11:43:18.153Z,100477.44
2019-04-27T11:45:48.478Z,100462.53
2019-04-27T11:48:18.768Z,100463.66
2019-04-27T11:50:48.150Z,100445.45
2019-04-27T11:53:22.639Z,100445.45
2019-04-27T11:55:48.558Z,100448.23
2019-04-27T11:58:17.946Z,100441.92
2019-04-27T12:00:47.320Z,100442.01
2019-04-27T12:03:17.644Z,100439.56
2019-04-27T12:05:47.010Z,100439.56
2019-04-27T12:08:16.410Z,100450.47
2019-04-27T12:10:48.197Z,100446.41
2019-04-27T12:13:17.503Z,100454.16
2019-04-27T12:15:46.873Z,100446.11
2019-04-27T12:18:16.488Z,100437.03
2019-04-27T12:20:45.926Z,100443.95
2019-04-27T12:23:16.544Z,100429.92
2019-04-27T12:25:46.992Z,100427.37
2019-04-27T12:28:17.979Z,100429.14
2019-04-27T12:30:55.893Z,100433.44
2019-04-27T12:33:27.664Z,100425.71
2019-04-27T12:35:57.201Z,100422.52
2019-04-27T12:38:28.214Z,100425.45
2019-04-27T12:40:57.720Z,100425.55
2019-04-27T12:43:27.067Z,100428.38
2019-04-27T12:45:56.516Z,100428.28
2019-04-27T12:48:25.903Z,100423.02
2019-04-27T12:50:56.324Z,100417.02
2019-04-27T12:53:30.330Z,100418.80
2019-04-27T12:56:04.079Z,100416.06
2019-04-27T12:58:47.545Z,100411.21
2019-04-27T13:01:21.630Z,100417.13
2019-04-27T13:03:50.968Z,100409.98
2019-04-27T13:06:20.357Z,100413.37
2019-04-27T13:08:49.834Z,100412.53
2019-04-27T13:11:19.184Z,100412.27
2019-04-27T13:13:48.550Z,100410.14
2019-04-27T13:16:17.942Z,100415.47
2019-04-27T13:18:47.339Z,100417.23
2019-04-27T13:21:19.528Z,100432.66
2019-04-27T13:24:00.827Z,100445.19
2019-04-27T13:26:19.778Z,100447.41
2019-04-27T13:28:49.151Z,100454.97
2019-04-27T13:31:19.280Z,100444.50
2019-04-27T13:33:48.611Z,100447.61
2019-04-27T13:36:17.984Z,100447.97
2019-04-27T13:38:47.318Z,100450.80
2019-04-27T13:41:27.866Z,100450.45
2019-04-27T13:43:47.871Z,100440.45
2019-04-27T13:46:21.567Z,100439.23
2019-04-27T13:49:08.284Z,100436.69
2019-04-27T13:51:39.312Z,100432.64
2019-04-27T13:54:18.739Z,100423.98
2019-04-27T13:56:40.744Z,100433.74
2019-04-27T13:59:10.811Z,100429.97
2019-04-27T14:01:41.255Z,100429.79
2019-04-27T14:04:10.606Z,100429.52
2019-04-27T14:06:41.808Z,100420.10
2019-04-27T14:09:12.646Z,100428.16
2019-04-27T14:11:43.087Z,100422.75
2019-04-27T14:14:12.472Z,100408.61
2019-04-27T14:16:43.829Z,100407.17
2019-04-27T14:19:12.895Z,100406.13
2019-04-27T14:21:42.310Z,100400.34
2019-04-27T14:24:11.633Z,100394.98
2019-04-27T14:26:41.017Z,100408.11
2019-04-27T14:29:10.385Z,100431.14
2019-04-27T14:31:39.773Z,100439.45
2019-04-27T14:34:09.288Z,100432.81
2019-04-27T14:36:40.543Z,100448.28
2019-04-27T14:39:11.475Z,100442.78
2019-04-27T14:41:42.006Z,100435.53
2019-04-27T14:44:11.476Z,100429.88
2019-04-27T14:46:41.955Z,100425.70
2019-04-27T14:49:11.344Z,100421.75
2019-04-27T14:51:40.660Z,100420.37
2019-04-27T14:54:10.038Z,100427.34
2019-04-27T14:56:39.401Z,100425.53
2019-04-27T14:59:08.802Z,100428.53
2019-04-27T15:01:40.062Z,100434.19
2019-04-27T15:04:09.498Z,100437.25
2019-04-27T15:06:38.843Z,100442.06
2019-04-27T15:09:08.383Z,100441.59
2019-04-27T15:11:37.726Z,100444.16
2019-04-27T15:14:08.924Z,100443.66
2019-04-27T15:16:42.612Z,100454.25
2019-04-27T15:19:17.812Z,100447.34
2019-04-27T15:21:57.695Z,100462.81
2019-04-27T15:24:15.695Z,100455.53
2019-04-27T15:26:45.096Z,100467.37
2019-04-27T15:29:16.107Z,100466.12
2019-04-27T15:31:48.438Z,100477.44
2019-04-27T15:34:35.798Z,100474.34
2019-04-27T15:37:07.911Z,100486.50
2019-04-27T15:39:48.951Z,100479.88
2019-04-27T15:42:23.131Z,100494.84
2019-04-27T15:44:52.521Z,100502.52
2019-04-27T15:47:22.286Z,100517.60
2019-04-27T15:49:54.585Z,100519.35
2019-04-27T15:52:25.530Z,100509.64
2019-04-27T15:54:53.840Z,100502.15
2019-04-27T15:57:23.240Z,100513.52
2019-04-27T15:59:52.590Z,100503.82
2019-04-27T16:02:21.939Z,100503.82
2019-04-27T16:04:53.393Z,100507.16
2019-04-27T16:07:25.455Z,100515.82
2019-04-27T16:09:54.502Z,100516.87
2019-04-27T16:12:24.743Z,100525.80
2019-04-27T16:14:54.087Z,100534.56
2019-04-27T16:17:23.476Z,100540.72
2019-04-27T16:19:52.875Z,100532.62
2019-04-27T16:22:22.571Z,100536.16
2019-04-27T16:24:53.670Z,100536.16
2019-04-27T16:27:25.904Z,100527.05
2019-04-27T16:29:55.058Z,100534.51
2019-04-27T16:32:24.447Z,100523.95
2019-04-27T16:34:53.848Z,100530.47
2019-04-27T16:37:28.557Z,100523.53
2019-04-27T16:39:58.947Z,100539.27
2019-04-27T16:42:28.799Z,100540.81
2019-04-27T16:44:58.217Z,100540.81
2019-04-27T16:47:28.198Z,100541.22
2019-04-27T16:49:58.610Z,100534.21
2019-04-27T16:52:29.812Z,100546.77
2019-04-27T16:55:00.774Z,100546.39
2019-04-27T16:57:32.446Z,100541.24
2019-04-27T17:00:01.410Z,100559.63
2019-04-27T17:02:32.358Z,100556.18
2019-04-27T17:05:01.804Z,100553.08
2019-04-27T17:07:37.362Z,100570.12
2019-04-27T17:10:03.459Z,100570.12
2019-04-27T17:12:37.742Z,100573.15
2019-04-27T17:15:21.915Z,100560.88
2019-04-27T17:17:52.952Z,100571.66
2019-04-27T17:20:22.400Z,100573.80
2019-04-27T17:22:53.376Z,100571.27
2019-04-27T17:25:23.462Z,100578.31
2019-04-27T17:28:04.003Z,100577.88
2019-04-27T17:30:30.919Z,100588.12
2019-04-27T17:33:20.559Z,100588.12
2019-04-27T17:35:49.163Z,100596.52
2019-04-27T17:38:18.493Z,100632.84
2019-04-27T17:40:48.774Z,100632.84
2019-04-27T17:43:19.103Z,100672.09
2019-04-27T17:45:48.696Z,100685.39
2019-04-27T17:48:18.451Z,100685.86
2019-04-27T17:50:48.964Z,100683.63
2019-04-27T17:53:20.281Z,100687.74
2019-04-27T17:55:49.444Z,100673.08
2019-04-27T17:58:20.939Z,100674.89
2019-04-27T18:00:49.969Z,100663.70
2019-04-27T18:03:21.036Z,100652.90
2019-04-27T18:05:52.047Z,100659.09
2019-04-27T18:08:25.009Z,100661.33
2019-04-27T18:10:53.697Z,100664.86
2019-04-27T18:13:25.498Z,100664.48
2019-04-27T18:15:54.684Z,100668.86
2019-04-27T18:18:28.102Z,100668.90
2019-04-27T18:20:57.427Z,100674.61
2019-04-27T18:23:31.370Z,100670.28
2019-04-27T18:26:08.252Z,100674.72
2019-04-27T18:28:39.300Z,100675.22
2019-04-27T18:31:11.544Z,100680.05
2019-04-27T18:33:41.497Z,100680.50
2019-04-27T18:36:13.975Z,100679.69
2019-04-27T18:38:41.992Z,100688.42
2019-04-27T18:41:11.964Z,100681.05
2019-04-27T18:43:46.330Z,100686.30
2019-04-27T18:46:14.830Z,100692.81
2019-04-27T18:48:50.256Z,100691.55
2019-04-27T18:51:25.143Z,100698.09
2019-04-27T18:53:54.083Z,100699.42
2019-04-27T18:56:23.114Z,100699.84
2019-04-27T18:58:52.535Z,100706.81
2019-04-27T19:01:21.932Z,100702.48
2019-04-27T19:03:51.275Z,100712.91
2019-04-27T19:06:20.630Z,100716.84
2019-04-27T19:08:49.999Z,100726.39
2019-04-27T19:11:19.376Z,100728.56
2019-04-27T19:13:49.722Z,100733.32
2019-04-27T19:16:22.094Z,100734.20
2019-04-27T19:18:50.180Z,100741.14
2019-04-27T19:21:20.123Z,100746.78
2019-04-27T19:23:50.537Z,100749.81
2019-04-27T19:26:24.302Z,100748.96
2019-04-27T19:28:58.410Z,100751.56
2019-04-27T19:31:30.549Z,100752.45
2019-04-27T19:33:59.869Z,100758.53
2019-04-27T19:36:30.430Z,100757.66
2019-04-27T19:38:59.858Z,100757.66
2019-04-27T19:41:29.407Z,100762.87
2019-04-27T19:43:59.908Z,100760.27
2019-04-27T19:46:30.511Z,100758.08
2019-04-27T19:49:00.153Z,100763.30
2019-04-27T19:51:29.606Z,100766.33
2019-04-27T19:53:58.943Z,100764.15
2019-04-27T19:56:28.494Z,100765.45
2019-04-27T19:58:59.520Z,100768.05
2019-04-27T20:01:33.232Z,100768.05
2019-04-27T20:04:04.352Z,100772.39
2019-04-27T20:06:34.707Z,100775.43
2019-04-27T20:09:16.511Z,100776.28
2019-04-27T20:11:45.886Z,100777.13
2019-04-27T20:14:15.233Z,100769.74
2019-04-27T20:16:44.559Z,100774.93
2019-04-27T20:19:13.912Z,100780.11
2019-04-27T20:21:43.275Z,100779.24
2019-04-27T20:24:12.641Z,100780.09
2019-04-27T20:26:42.040Z,100777.45
2019-04-27T20:29:11.888Z,100778.77
2019-04-27T20:31:41.279Z,100783.53
2019-04-27T20:34:10.665Z,100790.45
2019-04-27T20:36:41.486Z,100778.27
2019-04-27T20:39:11.756Z,100782.14
2019-04-27T20:41:41.230Z,100777.35
2019-04-27T20:44:12.535Z,100776.93
2019-04-27T20:46:42.307Z,100782.57
2019-04-27T20:49:16.194Z,100780.38
2019-04-27T20:51:52.797Z,100783.88
2019-04-27T20:54:22.682Z,100786.91
2019-04-27T20:56:53.622Z,100795.16
2019-04-27T20:59:24.106Z,100791.25
2019-04-27T21:01:53.458Z,100786.45
2019-04-27T21:04:33.505Z,100788.18
2019-04-27T21:07:04.521Z,100791.22
2019-04-27T21:09:33.920Z,100789.91
2019-04-27T21:12:04.148Z,100790.34
2019-04-27T21:14:33.492Z,100794.67
2019-04-27T21:17:02.835Z,100794.22
2019-04-27T21:19:32.213Z,100796.83
2019-04-27T21:22:01.608Z,100798.98
2019-04-27T21:24:31.251Z,100795.50
2019-04-27T21:27:00.622Z,100801.13
2019-04-27T21:29:31.216Z,100799.41
2019-04-27T21:32:01.536Z,100802.86
2019-04-27T21:34:31.882Z,100803.29
2019-04-27T21:37:01.240Z,100804.17
2019-04-27T21:39:31.875Z,100807.20
2019-04-27T21:42:01.331Z,100807.17
2019-04-27T21:44:31.958Z,100806.75
2019-04-27T21:47:01.372Z,100803.72
2019-04-27T21:49:31.440Z,100810.66
2019-04-27T21:52:02.477Z,100806.33
2019-04-27T21:54:33.466Z,100807.59
2019-04-27T21:57:03.183Z,100810.63
2019-04-27T21:59:32.543Z,100812.36
2019-04-27T22:02:03.535Z,100807.17
2019-04-27T22:04:32.934Z,100808.94
2019-04-27T22:07:02.364Z,100812.81
2019-04-27T22:09:31.753Z,100808.48
2019-04-27T22:12:02.479Z,100813.70
2019-04-27T22:14:31.913Z,100814.16
2019-04-27T22:17:01.379Z,100811.97
2019-04-27T22:19:31.246Z,100808.91
2019-04-27T22:22:02.265Z,100816.30
2019-04-27T22:24:34.246Z,100820.22
2019-04-27T22:27:03.714Z,100817.19
2019-04-27T22:29:33.049Z,100816.30
2019-04-27T22:32:02.450Z,100816.30
2019-04-27T22:34:31.783Z,100819.77
2019-04-27T22:37:02.675Z,100821.49
2019-04-27T22:39:39.354Z,100820.64
2019-04-27T22:42:28.010Z,100825.86
2019-04-27T22:44:58.980Z,100825.41
2019-04-27T22:47:29.339Z,100826.29
2019-04-27T22:49:58.708Z,100829.32
2019-04-27T22:52:28.063Z,100828.47
2019-04-27T22:54:57.407Z,100840.21
2019-04-27T22:57:28.448Z,100836.73
2019-04-27T23:00:03.316Z,100832.81
2019-04-27T23:02:33.816Z,100838.03
2019-04-27T23:05:03.601Z,100834.12
2019-04-27T23:07:33.030Z,100843.25
2019-04-27T23:10:02.405Z,100841.06
2019-04-27T23:12:31.902Z,100847.16
2019-04-27T23:15:01.201Z,100847.16
2019-04-27T23:17:39.348Z,100847.16
2019-04-27T23:20:08.968Z,100839.76
2019-04-27T23:22:38.376Z,100841.06
2019-04-27T23:25:11.141Z,100840.64
2019-04-27T23:27:41.104Z,100848.89
2019-04-27T23:30:11.400Z,100854.11
2019-04-27T23:32:42.538Z,100854.11
2019-04-27T23:35:12.184Z,100856.30
2019-04-27T23:37:41.562Z,100853.23
2019-04-27T23:40:11.283Z,100851.50
2019-04-27T23:42:41.683Z,100852.81
2019-04-27T23:45:11.506Z,100850.63
2019-04-27T23:47:40.951Z,100847.16
2019-04-27T23:50:11.376Z,100845.86
2019-04-27T23:53:01.963Z,100847.13
2019-04-27T23:55:38.927Z,100848.89
2019-04-27T23:58:08.396Z,100839.30
